Time;durP1;ratioP1;P1;durP2;ratioP2;P2;SDS_P1;SDS_P2;PMS_P1;PMS_P2;Temp;Humidity;BMP_temperature;BMP_pressure;BME280_temperature;BME280_humidity;BME280_pressure;Samples;Min_cycle;Max_cycle;Signal;HPM_P1;HPM_P2
2023/10/10 00:01:05;;;;;;;11.43;5.18;;;13.80;99.90;;;;;;5037808;28;20026;-70
2023/10/10 00:03:32;;;;;;;12.05;5.43;;;13.90;99.90;;;;;;5038078;28;20100;-70
2023/10/10 00:05:59;;;;;;;13.27;5.60;;;13.90;99.90;;;;;;5037131;28;20025;-70
2023/10/10 00:08:34;;;;;;;13.88;5.30;;;13.80;99.90;;;;;;5037062;28;20025;-70
2023/10/10 00:11:00;;;;;;;8.07;4.78;;;13.80;99.90;;;;;;5038019;28;20041;-70
2023/10/10 00:13:26;;;;;;;14.93;6.32;;;13.80;99.90;;;;;;5037872;28;20022;-70
2023/10/10 00:16:05;;;;;;;12.55;5.45;;;13.80;99.90;;;;;;5037780;28;20025;-70
2023/10/10 00:18:32;;;;;;;11.82;5.93;;;13.80;99.90;;;;;;5037865;28;20018;-70
2023/10/10 00:21:07;;;;;;;10.90;5.60;;;13.80;99.90;;;;;;5037318;28;20036;-70
2023/10/10 00:23:47;;;;;;;11.82;5.07;;;13.70;99.90;;;;;;5037994;28;20049;-70
2023/10/10 00:26:14;;;;;;;14.43;5.93;;;13.70;99.90;;;;;;5037590;28;20022;-70
2023/10/10 00:28:44;;;;;;;13.20;5.43;;;13.60;99.90;;;;;;5036659;28;20033;-70
2023/10/10 00:31:17;;;;;;;12.07;5.93;;;13.60;99.90;;;;;;5037741;28;20021;-70
2023/10/10 00:33:45;;;;;;;13.02;5.68;;;13.60;99.90;;;;;;5037423;28;20026;-70
2023/10/10 00:36:21;;;;;;;17.00;6.65;;;13.70;99.90;;;;;;5037076;28;20022;-70
2023/10/10 00:38:50;;;;;;;11.63;5.28;;;13.70;99.90;;;;;;5037818;28;20041;-70
2023/10/10 00:41:16;;;;;;;10.23;5.18;;;13.70;99.90;;;;;;5036681;28;20060;-70
2023/10/10 00:43:44;;;;;;;13.18;6.32;;;13.60;99.90;;;;;;5037289;28;20068;-70
2023/10/10 00:46:11;;;;;;;10.98;5.35;;;13.60;99.90;;;;;;5037306;28;20056;-70
2023/10/10 00:48:38;;;;;;;9.80;5.28;;;13.50;99.90;;;;;;5037199;28;20079;-70
2023/10/10 00:51:10;;;;;;;11.50;5.75;;;13.40;99.90;;;;;;5037242;28;20104;-71
2023/10/10 00:53:40;;;;;;;8.50;5.13;;;13.40;99.90;;;;;;5037534;28;20022;-70
2023/10/10 00:56:07;;;;;;;10.35;4.20;;;13.30;99.90;;;;;;5037401;28;20079;-70
2023/10/10 00:58:36;;;;;;;7.13;4.45;;;13.20;99.90;;;;;;5037506;28;20021;-70
2023/10/10 01:01:14;;;;;;;8.10;4.22;;;13.10;99.90;;;;;;5036948;28;20124;-70
2023/10/10 01:03:45;;;;;;;6.30;3.70;;;13.20;99.90;;;;;;5037348;28;20018;-70
2023/10/10 01:06:24;;;;;;;11.52;5.47;;;13.10;99.90;;;;;;5037817;28;20025;-70
2023/10/10 01:09:16;;;;;;;11.35;4.30;;;13.10;99.90;;;;;;5037331;28;20021;-70
2023/10/10 01:11:43;;;;;;;15.18;4.40;;;13.20;99.90;;;;;;5036958;28;20092;-70
2023/10/10 01:14:08;;;;;;;9.27;4.28;;;13.20;99.90;;;;;;5036126;28;20064;-70
2023/10/10 01:16:34;;;;;;;7.68;4.78;;;13.20;99.90;;;;;;5036380;28;20021;-70
2023/10/10 01:19:00;;;;;;;8.57;4.35;;;13.30;99.90;;;;;;5036364;28;20022;-70
2023/10/10 01:21:37;;;;;;;12.45;4.53;;;13.30;99.90;;;;;;5035701;28;20032;-70
2023/10/10 01:24:08;;;;;;;7.90;4.25;;;13.20;99.90;;;;;;5036998;28;20022;-70
2023/10/10 01:26:38;;;;;;;13.55;4.32;;;13.20;99.90;;;;;;5036076;28;20103;-70
2023/10/10 01:31:45;;;;;;;8.65;4.97;;;13.40;99.90;;;;;;5037084;28;20029;-70
2023/10/10 01:34:30;;;;;;;8.90;4.72;;;13.20;99.90;;;;;;5036548;28;20038;-70
2023/10/10 01:37:06;;;;;;;12.30;5.13;;;13.20;99.90;;;;;;5037118;28;20022;-70
2023/10/10 01:39:44;;;;;;;9.18;4.47;;;13.10;99.90;;;;;;5036682;28;20022;-70
2023/10/10 01:45:36;;;;;;;12.15;4.55;;;13.10;99.90;;;;;;5040713;28;20087;-71
2023/10/10 01:48:08;;;;;;;11.73;6.10;;;13.10;99.90;;;;;;5041189;28;20022;-71
2023/10/10 01:50:34;;;;;;;12.82;5.10;;;12.80;99.90;;;;;;5040881;28;20022;-70
2023/10/10 01:53:00;;;;;;;15.70;5.93;;;12.90;99.90;;;;;;5039648;28;20026;-70
2023/10/10 01:55:26;;;;;;;11.07;5.32;;;12.90;99.90;;;;;;5040612;28;20086;-70
2023/10/10 01:58:00;;;;;;;9.02;4.95;;;12.90;99.90;;;;;;5040642;28;20052;-70
2023/10/10 02:00:26;;;;;;;10.15;4.60;;;12.80;99.90;;;;;;5040394;28;20017;-70
2023/10/10 02:02:56;;;;;;;8.93;4.38;;;12.70;99.90;;;;;;5039298;28;20025;-70
2023/10/10 02:08:09;;;;;;;8.90;4.75;;;12.70;99.90;;;;;;5040608;28;20026;-70
2023/10/10 02:10:36;;;;;;;10.98;4.57;;;12.60;99.90;;;;;;5040223;28;20025;-70
2023/10/10 02:13:06;;;;;;;12.95;5.43;;;12.70;99.90;;;;;;5040452;28;20034;-70
2023/10/10 02:15:36;;;;;;;12.20;5.30;;;12.70;99.90;;;;;;5040021;28;20040;-70
2023/10/10 02:18:05;;;;;;;15.98;6.78;;;12.70;99.90;;;;;;5040296;28;20041;-68
2023/10/10 02:20:50;;;;;;;11.63;6.10;;;12.80;99.90;;;;;;5040255;28;20104;-68
2023/10/10 02:23:31;;;;;;;17.00;6.68;;;12.70;99.90;;;;;;5040214;28;20034;-70
2023/10/10 02:28:48;;;;;;;13.05;6.93;;;12.80;99.90;;;;;;5039919;28;20032;-70
2023/10/10 02:31:19;;;;;;;14.95;6.50;;;12.80;99.90;;;;;;5039866;28;20049;-70
2023/10/10 02:34:03;;;;;;;12.73;6.38;;;12.80;99.90;;;;;;5039714;28;20079;-70
2023/10/10 02:36:30;;;;;;;13.70;5.80;;;12.80;99.90;;;;;;5039756;28;20021;-70
2023/10/10 02:39:01;;;;;;;12.48;5.57;;;12.80;99.90;;;;;;5039644;28;20159;-70
2023/10/10 02:41:38;;;;;;;9.50;5.38;;;12.70;99.90;;;;;;5040075;28;20037;-70
2023/10/10 02:44:05;;;;;;;10.95;5.68;;;12.70;99.90;;;;;;5039902;28;20025;-70
2023/10/10 02:46:35;;;;;;;9.75;4.78;;;12.60;99.90;;;;;;5039978;28;20017;-70
2023/10/10 02:51:55;;;;;;;11.52;5.57;;;12.70;99.90;;;;;;5039676;28;20034;-70
2023/10/10 02:54:32;;;;;;;15.10;6.07;;;12.70;99.90;;;;;;5039037;28;20026;-70
2023/10/10 02:59:52;;;;;;;13.25;5.68;;;12.70;99.90;;;;;;5039346;28;20035;-70
2023/10/10 03:02:29;;;;;;;15.23;6.55;;;12.70;99.90;;;;;;5038938;28;20028;-70
2023/10/10 03:07:29;;;;;;;10.13;5.43;;;12.60;99.90;;;;;;5039169;28;20025;-70
2023/10/10 03:12:41;;;;;;;13.88;6.35;;;12.60;99.90;;;;;;5039254;28;20058;-70
2023/10/10 03:20:25;;;;;;;11.88;6.25;;;12.70;99.90;;;;;;5039223;28;20029;-70
2023/10/10 03:23:18;;;;;;;16.58;5.97;;;12.70;99.90;;;;;;5039386;28;20026;-70
2023/10/10 03:25:54;;;;;;;13.27;5.93;;;12.60;99.90;;;;;;5038001;28;20033;-70
2023/10/10 03:28:29;;;;;;;17.55;7.15;;;12.70;99.90;;;;;;5038870;28;20096;-70
2023/10/10 03:31:23;;;;;;;11.13;6.15;;;12.60;99.90;;;;;;5038844;28;20083;-70
2023/10/10 03:36:43;;;;;;;14.07;5.30;;;12.50;99.90;;;;;;5039052;28;20036;-70
2023/10/10 03:39:23;;;;;;;11.20;5.18;;;12.40;99.90;;;;;;5038535;28;20017;-70
2023/10/10 05:23:38;;;;;;;9.02;4.57;;;11.80;99.90;;;;;;5043993;28;20040;-70
2023/10/10 05:26:05;;;;;;;6.20;3.60;;;11.80;99.90;;;;;;5043125;28;20026;-70
2023/10/10 05:28:32;;;;;;;16.05;4.57;;;11.80;99.90;;;;;;5043961;28;20018;-70
2023/10/10 05:30:59;;;;;;;10.00;4.78;;;11.80;99.90;;;;;;5043549;28;20027;-70
2023/10/10 05:33:26;;;;;;;8.65;4.03;;;11.70;99.90;;;;;;5042749;28;20025;-70
2023/10/10 05:35:58;;;;;;;6.38;3.90;;;11.60;99.90;;;;;;5043282;28;20052;-70
2023/10/10 05:38:25;;;;;;;7.70;4.25;;;11.70;99.90;;;;;;5044281;28;20035;-70
2023/10/10 05:40:51;;;;;;;8.63;4.32;;;11.80;99.90;;;;;;5042270;28;20049;-70
2023/10/10 05:43:17;;;;;;;13.73;5.55;;;11.80;99.90;;;;;;5042378;28;20025;-70
2023/10/10 05:45:48;;;;;;;9.50;4.80;;;11.70;99.90;;;;;;5043523;28;20017;-70
2023/10/10 05:48:14;;;;;;;12.85;4.55;;;11.70;99.90;;;;;;5043630;28;20043;-70
2023/10/10 05:50:40;;;;;;;8.95;5.30;;;11.70;99.90;;;;;;5043225;28;20081;-70
2023/10/10 05:53:07;;;;;;;9.27;5.63;;;11.60;99.90;;;;;;5043304;28;20017;-70
2023/10/10 05:55:33;;;;;;;11.45;4.05;;;11.60;99.90;;;;;;5042375;28;20121;-70
2023/10/10 05:58:02;;;;;;;12.60;4.78;;;11.60;99.90;;;;;;5043405;28;20025;-70
2023/10/10 06:00:32;;;;;;;11.57;5.45;;;11.60;99.90;;;;;;5043292;28;20040;-70
2023/10/10 06:02:57;;;;;;;8.10;3.92;;;11.60;99.90;;;;;;5042086;28;20026;-70
2023/10/10 06:05:23;;;;;;;11.18;4.72;;;11.50;99.90;;;;;;5043200;28;20028;-70
2023/10/10 06:07:49;;;;;;;12.60;4.95;;;11.50;99.90;;;;;;5043118;28;20022;-70
2023/10/10 06:10:16;;;;;;;11.07;5.03;;;11.50;99.90;;;;;;5043066;28;20022;-70
2023/10/10 06:12:50;;;;;;;9.27;4.68;;;11.50;99.90;;;;;;5042223;28;20092;-70
2023/10/10 06:15:17;;;;;;;13.70;5.53;;;11.50;99.90;;;;;;5043203;28;20036;-70
2023/10/10 06:17:44;;;;;;;10.73;4.45;;;11.60;99.90;;;;;;5043081;28;20043;-70
2023/10/10 06:20:10;;;;;;;11.65;5.32;;;11.70;99.90;;;;;;5043122;28;20021;-70
2023/10/10 06:22:37;;;;;;;13.98;5.45;;;11.80;99.90;;;;;;5043336;28;20091;-70
2023/10/10 06:25:05;;;;;;;12.68;5.43;;;11.90;99.90;;;;;;5042962;28;20013;-70
2023/10/10 06:27:33;;;;;;;15.40;4.97;;;11.90;99.90;;;;;;5042883;28;20026;-70
2023/10/10 06:29:58;;;;;;;11.43;4.78;;;11.90;99.90;;;;;;5039198;28;20030;-70
2023/10/10 06:32:26;;;;;;;12.55;4.13;;;11.90;99.90;;;;;;5040357;28;20021;-70
2023/10/10 06:35:14;;;;;;;9.65;5.00;;;11.90;99.90;;;;;;5039862;28;20036;-70
2023/10/10 06:37:38;;;;;;;9.85;4.82;;;11.80;99.90;;;;;;5040012;28;20025;-70
2023/10/10 06:40:08;;;;;;;13.23;4.90;;;11.80;99.90;;;;;;5039632;28;20062;-70
2023/10/10 06:42:34;;;;;;;8.93;4.60;;;11.90;99.90;;;;;;5039729;28;20022;-70
2023/10/10 06:45:07;;;;;;;11.57;5.40;;;12.00;99.90;;;;;;5039784;28;20033;-70
2023/10/10 06:47:33;;;;;;;11.90;5.97;;;12.10;99.90;;;;;;5039406;28;20022;-70
2023/10/10 06:50:00;;;;;;;15.15;5.95;;;12.20;99.90;;;;;;5039640;28;20029;-70
2023/10/10 06:52:29;;;;;;;13.95;5.07;;;12.20;99.90;;;;;;5039344;28;20022;-70
2023/10/10 06:54:54;;;;;;;9.50;4.72;;;12.20;99.90;;;;;;5038548;28;20029;-70
2023/10/10 06:57:22;;;;;;;9.77;4.60;;;12.30;99.90;;;;;;5038457;28;20087;-70
2023/10/10 06:59:48;;;;;;;10.18;4.72;;;12.30;99.90;;;;;;5039597;28;20049;-70
2023/10/10 07:02:20;;;;;;;15.35;5.47;;;12.30;99.90;;;;;;5038905;28;20080;-70
2023/10/10 07:04:52;;;;;;;12.15;5.68;;;12.30;99.90;;;;;;5039254;28;20063;-70
2023/10/10 07:07:19;;;;;;;11.85;6.15;;;12.40;99.90;;;;;;5039118;28;20056;-70
2023/10/10 07:09:44;;;;;;;12.02;5.53;;;12.40;99.90;;;;;;5039323;28;20033;-70
2023/10/10 07:12:10;;;;;;;16.40;7.00;;;12.40;99.90;;;;;;5038179;28;20022;-70
2023/10/10 07:14:46;;;;;;;11.93;5.72;;;12.50;99.90;;;;;;5039353;28;20077;-70
2023/10/10 07:17:15;;;;;;;11.18;6.40;;;12.50;99.90;;;;;;5038901;28;20100;-71
2023/10/10 07:22:38;;;;;;;9.25;5.68;;;12.70;99.90;;;;;;5039060;28;20026;-70
2023/10/10 07:28:05;;;;;;;17.25;6.95;;;12.70;99.90;;;;;;4997883;28;20037;-70
2023/10/10 07:30:36;;;;;;;13.05;7.45;;;12.80;99.90;;;;;;4981441;28;20026;-70
2023/10/10 07:33:04;;;;;;;16.58;8.77;;;12.80;99.90;;;;;;4998337;28;20081;-70
2023/10/10 07:35:36;;;;;;;18.42;8.65;;;12.70;99.90;;;;;;4997981;28;20097;-70
2023/10/10 07:38:01;;;;;;;17.45;8.85;;;12.70;99.90;;;;;;4998032;28;20038;-70
2023/10/10 07:40:30;;;;;;;16.90;7.55;;;12.70;99.90;;;;;;4997525;28;20085;-70
2023/10/10 07:42:59;;;;;;;18.45;9.02;;;12.90;99.90;;;;;;4997151;28;20033;-70
2023/10/10 07:45:43;;;;;;;23.02;10.52;;;13.00;99.90;;;;;;4997649;28;20035;-70
2023/10/10 07:50:35;;;;;;;21.73;9.35;;;13.20;99.90;;;;;;4997249;28;20014;-70
2023/10/10 07:53:12;;;;;;;23.00;9.93;;;13.20;99.90;;;;;;4981237;28;20089;-70
2023/10/10 07:56:00;;;;;;;26.38;9.25;;;13.30;99.90;;;;;;4997409;28;20031;-70
2023/10/10 07:58:42;;;;;;;20.88;8.68;;;13.40;99.90;;;;;;4997765;28;20040;-70
2023/10/10 08:01:09;;;;;;;;;;;13.60;99.90;;;;;;4981250;28;20027;-70
2023/10/10 08:03:36;;;;;;;22.35;8.70;;;13.60;99.90;;;;;;5004581;28;19908;-70
2023/10/10 08:06:02;;;;;;;21.75;9.75;;;13.60;99.90;;;;;;5037954;28;20025;-70
2023/10/10 08:08:27;;;;;;;23.58;10.23;;;13.70;99.90;;;;;;5038003;28;20028;-70
2023/10/10 08:10:53;;;;;;;16.15;8.43;;;13.70;99.90;;;;;;5037931;28;20028;-70
2023/10/10 08:13:20;;;;;;;20.70;9.88;;;13.80;99.90;;;;;;5037926;28;20025;-70
2023/10/10 08:18:49;;;;;;;22.42;10.10;;;14.00;99.90;;;;;;5038052;28;20022;-70
2023/10/10 08:21:14;;;;;;;24.88;10.30;;;14.10;99.90;;;;;;5083716;22;20052;-65
2023/10/10 08:23:48;;;;;;;20.17;9.73;;;14.20;99.90;;;;;;5018267;28;20038;-65
2023/10/10 08:26:26;;;;;;;21.25;10.27;;;14.30;99.90;;;;;;5017129;28;20026;-65
2023/10/10 08:28:53;;;;;;;25.92;10.48;;;14.40;99.90;;;;;;5017749;28;20088;-65
2023/10/10 08:31:19;;;;;;;28.70;11.65;;;14.50;99.90;;;;;;5017899;28;20022;-65
2023/10/10 08:33:46;;;;;;;23.10;11.13;;;14.60;99.90;;;;;;5017838;28;20065;-65
2023/10/10 08:36:25;;;;;;;27.50;10.75;;;14.60;99.90;;;;;;5017770;28;20022;-65
2023/10/10 08:38:58;;;;;;;28.42;9.85;;;14.60;99.90;;;;;;5017741;28;20099;-65
2023/10/10 08:41:28;;;;;;;27.08;11.07;;;14.70;99.90;;;;;;5017497;28;20026;-65
2023/10/10 08:44:06;;;;;;;39.08;11.75;;;14.80;99.90;;;;;;5017606;28;20021;-65
2023/10/10 08:46:40;;;;;;;25.52;10.73;;;14.80;99.90;;;;;;5017618;28;20109;-65
2023/10/10 08:49:07;;;;;;;25.70;11.90;;;14.90;99.90;;;;;;5017710;28;20034;-65
2023/10/10 08:51:34;;;;;;;30.58;12.68;;;14.90;99.90;;;;;;5016626;28;20026;-65
2023/10/10 08:54:15;;;;;;;26.73;12.52;;;15.00;99.90;;;;;;5017051;28;20033;-66
2023/10/10 08:57:10;;;;;;;31.33;12.18;;;15.10;99.90;;;;;;5017517;28;20091;-65
2023/10/10 08:59:42;;;;;;;31.00;12.40;;;15.20;99.90;;;;;;5017794;28;20029;-65
2023/10/10 09:02:15;;;;;;;29.17;12.30;;;15.30;99.90;;;;;;5016465;28;20033;-65
2023/10/10 09:04:41;;;;;;;28.30;11.95;;;15.40;99.90;;;;;;5017307;28;20022;-65
2023/10/10 09:07:19;;;;;;;29.95;11.35;;;15.60;99.90;;;;;;5017039;28;20048;-65
2023/10/10 09:09:54;;;;;;;21.05;10.77;;;15.90;99.90;;;;;;5017254;28;20083;-65
2023/10/10 09:12:20;;;;;;;24.23;10.80;;;16.10;99.90;;;;;;5016501;28;20088;-65
2023/10/10 09:14:52;;;;;;;33.10;10.75;;;16.10;99.90;;;;;;5016610;28;20033;-65
2023/10/10 09:17:35;;;;;;;20.63;9.93;;;16.20;99.90;;;;;;5016454;28;20030;-65
2023/10/10 09:20:17;;;;;;;22.73;10.73;;;16.30;99.90;;;;;;5017391;28;20026;-65
2023/10/10 09:22:44;;;;;;;27.92;9.88;;;16.40;99.90;;;;;;5016859;28;20032;-65
2023/10/10 09:25:31;;;;;;;22.70;9.02;;;16.50;99.90;;;;;;5016554;28;20041;-65
2023/10/10 09:28:03;;;;;;;21.50;8.98;;;16.70;99.90;;;;;;5016353;28;20030;-65
2023/10/10 09:30:34;;;;;;;20.63;9.30;;;16.90;99.90;;;;;;5017344;28;20022;-65
2023/10/10 09:35:48;;;;;;;19.45;8.63;;;17.10;99.90;;;;;;5017423;28;20037;-65
2023/10/10 09:38:19;;;;;;;18.45;8.93;;;17.10;99.90;;;;;;5016358;28;20022;-65
2023/10/10 09:40:48;;;;;;;17.00;8.45;;;17.20;99.90;;;;;;5017094;28;20018;-65
2023/10/10 09:43:35;;;;;;;15.30;8.10;;;17.40;99.90;;;;;;5015999;28;20033;-65
2023/10/10 09:46:19;;;;;;;19.25;7.85;;;17.50;99.90;;;;;;5017055;28;20018;-65
2023/10/10 09:51:30;;;;;;;18.88;7.80;;;17.70;99.90;;;;;;5017134;28;20026;-65
2023/10/10 09:54:15;;;;;;;16.25;7.35;;;17.90;99.90;;;;;;5016824;28;20026;-65
2023/10/10 09:56:46;;;;;;;16.92;7.85;;;18.00;99.90;;;;;;5016899;28;20092;-65
2023/10/10 09:59:19;;;;;;;12.43;6.88;;;18.10;99.90;;;;;;5016105;28;20022;-65
2023/10/10 10:01:46;;;;;;;13.48;7.68;;;18.00;99.90;;;;;;5015825;28;20054;-65
2023/10/10 10:04:24;;;;;;;17.13;8.23;;;18.00;99.90;;;;;;5016704;28;20022;-65
2023/10/10 10:07:01;;;;;;;18.52;8.07;;;18.10;99.90;;;;;;5019706;28;20022;-65
2023/10/10 10:09:46;;;;;;;12.93;6.90;;;18.10;99.90;;;;;;5019613;28;20044;-65
2023/10/10 10:12:41;;;;;;;16.00;7.43;;;18.20;99.90;;;;;;5020128;28;20068;-65
2023/10/10 10:15:24;;;;;;;20.42;9.13;;;18.40;99.90;;;;;;5019957;28;20051;-65
2023/10/10 10:23:37;;;;;;;14.32;7.53;;;19.10;99.90;;;;;;5020513;28;20038;-65
2023/10/10 10:26:04;;;;;;;16.92;7.88;;;19.20;99.90;;;;;;5020189;28;20022;-65
2023/10/10 10:28:35;;;;;;;15.32;7.68;;;19.50;99.90;;;;;;5020165;28;20025;-66
2023/10/10 10:31:16;;;;;;;18.65;7.25;;;19.80;99.90;;;;;;5019689;28;20080;-65
2023/10/10 10:34:05;;;;;;;22.03;7.97;;;20.00;99.90;;;;;;5020037;28;20033;-65
2023/10/10 10:36:51;;;;;;;14.65;6.88;;;20.00;99.90;;;;;;5020000;28;20288;-65
2023/10/10 10:39:25;;;;;;;16.35;7.40;;;19.80;99.90;;;;;;5020175;28;20049;-65
2023/10/10 10:41:53;;;;;;;13.35;7.28;;;19.70;99.90;;;;;;5020131;28;20025;-65
2023/10/10 10:44:54;;;;;;;14.63;7.07;;;19.80;99.90;;;;;;5019789;28;20026;-65
2023/10/10 10:47:35;;;;;;;16.92;8.23;;;19.80;99.90;;;;;;5019866;28;20049;-65
2023/10/10 10:50:06;;;;;;;17.73;7.07;;;19.80;99.90;;;;;;5020105;28;20164;-65
2023/10/10 10:52:44;;;;;;;17.15;6.85;;;19.90;99.90;;;;;;5019443;28;20056;-65
2023/10/10 10:55:22;;;;;;;18.42;6.97;;;20.00;99.90;;;;;;5019790;28;20037;-65
2023/10/10 10:58:05;;;;;;;14.75;7.93;;;20.20;99.90;;;;;;5019668;28;20030;-65
2023/10/10 11:03:33;;;;;;;11.60;6.75;;;21.00;99.90;;;;;;5019638;28;20061;-65
2023/10/10 11:06:00;;;;;;;16.58;7.70;;;21.40;99.90;;;;;;5019508;28;20026;-65
2023/10/10 11:11:28;;;;;;;15.48;6.70;;;21.50;99.90;;;;;;5019807;28;20037;-65
2023/10/10 11:13:59;;;;;;;15.50;7.57;;;21.20;99.90;;;;;;5019477;28;20022;-65
2023/10/10 11:16:36;;;;;;;15.73;7.95;;;21.10;99.90;;;;;;5018716;28;20022;-65
2023/10/10 11:19:12;;;;;;;12.98;6.43;;;21.30;99.90;;;;;;5019229;28;20022;-66
2023/10/10 11:21:47;;;;;;;18.60;6.95;;;21.30;99.90;;;;;;5019081;28;20041;-65
2023/10/10 11:24:23;;;;;;;12.88;6.38;;;21.10;99.90;;;;;;5019290;28;20022;-65
2023/10/10 11:29:42;;;;;;;18.88;7.30;;;21.80;99.90;;;;;;5019467;28;20049;-66
2023/10/10 11:32:11;;;;;;;14.80;7.30;;;21.70;99.90;;;;;;5017904;28;20022;-66
2023/10/10 11:34:49;;;;;;;12.98;6.40;;;22.30;99.90;;;;;;5018925;28;20018;-65
2023/10/10 11:37:20;;;;;;;12.20;6.95;;;22.20;99.90;;;;;;5018591;28;20029;-66
2023/10/10 11:39:47;;;;;;;12.88;6.35;;;22.50;99.90;;;;;;5018908;28;20014;-66
2023/10/10 11:42:30;;;;;;;14.38;7.00;;;22.30;99.90;;;;;;5017790;28;20040;-65
2023/10/10 11:45:10;;;;;;;17.95;7.32;;;22.10;99.90;;;;;;5017871;28;20025;-66
2023/10/10 11:47:45;;;;;;;13.82;6.85;;;21.80;99.90;;;;;;5018567;28;20026;-65
2023/10/10 11:50:12;;;;;;;18.20;7.30;;;21.60;99.90;;;;;;5018597;28;20108;-65
2023/10/10 11:52:56;;;;;;;20.33;7.38;;;21.80;99.90;;;;;;5017485;28;20030;-65
2023/10/10 11:55:30;;;;;;;18.98;7.63;;;21.40;99.90;;;;;;5017702;28;20037;-65
2023/10/10 11:58:06;;;;;;;16.70;7.68;;;21.40;99.90;;;;;;5017686;28;20108;-65
2023/10/10 12:00:42;;;;;;;21.30;7.05;;;21.30;99.90;;;;;;5019018;28;20026;-65
2023/10/10 12:03:33;;;;;;;14.57;7.57;;;21.30;99.90;;;;;;5018719;28;20072;-65
2023/10/10 12:06:00;;;;;;;12.68;7.47;;;21.50;99.90;;;;;;5018595;28;20022;-65
2023/10/10 12:08:26;;;;;;;13.18;6.70;;;21.60;99.90;;;;;;5018398;28;20026;-65
2023/10/10 12:10:56;;;;;;;16.70;6.95;;;21.70;99.90;;;;;;5017510;28;20026;-65
2023/10/10 12:13:44;;;;;;;19.63;6.50;;;21.80;99.90;;;;;;5018112;28;20036;-65
2023/10/10 12:16:12;;;;;;;15.88;6.15;;;21.80;99.90;;;;;;5017370;28;20030;-65
2023/10/10 12:18:43;;;;;;;15.98;6.25;;;21.80;99.90;;;;;;5018250;28;20068;-65
2023/10/10 12:21:10;;;;;;;;;;;21.90;99.90;;;;;;5018578;28;20026;-66
2023/10/10 12:23:36;;;;;;;17.10;5.90;;;22.20;99.90;;;;;;5017969;28;19909;-65
2023/10/10 12:26:04;;;;;;;14.68;6.47;;;22.00;99.90;;;;;;5017508;28;20025;-65
2023/10/10 12:28:30;;;;;;;14.02;5.93;;;21.90;99.90;;;;;;5016111;28;20114;-65
2023/10/10 12:30:56;;;;;;;9.38;5.43;;;21.90;99.90;;;;;;5017136;28;20053;-65
2023/10/10 12:33:23;;;;;;;14.73;5.82;;;21.90;99.90;;;;;;5016803;28;20022;-65
2023/10/10 12:35:49;;;;;;;15.38;6.00;;;22.00;99.90;;;;;;5017131;28;20029;-65
2023/10/10 12:38:20;;;;;;;15.10;5.80;;;22.00;99.90;;;;;;5016966;28;20026;-65
2023/10/10 12:40:49;;;;;;;;;;;22.40;99.90;;;;;;5018094;28;20022;-66
2023/10/10 12:43:15;;;;;;;12.80;5.15;;;22.50;99.90;;;;;;5017117;28;19913;-66
2023/10/10 12:45:41;;;;;;;12.48;4.85;;;22.60;99.90;;;;;;5017123;28;20025;-65
2023/10/10 12:48:20;;;;;;;14.77;6.05;;;23.20;99.90;;;;;;5016803;28;20125;-65
2023/10/10 12:50:47;;;;;;;15.15;6.10;;;23.30;99.90;;;;;;5017715;28;20026;-65
2023/10/10 12:53:19;;;;;;;10.75;5.03;;;23.40;99.90;;;;;;5016449;28;20112;-65
2023/10/10 12:55:51;;;;;;;9.65;5.15;;;23.80;99.90;;;;;;5018052;28;20040;-66
2023/10/10 12:58:24;;;;;;;11.68;5.72;;;24.40;99.90;;;;;;5016667;28;20041;-66
2023/10/10 13:00:51;;;;;;;10.32;4.93;;;25.80;99.90;;;;;;5016519;28;20088;-66
2023/10/10 13:03:23;;;;;;;9.88;5.55;;;25.70;99.90;;;;;;5016501;28;20040;-66
2023/10/10 13:05:52;;;;;;;12.43;5.35;;;25.00;99.90;;;;;;5017739;28;20033;-66
2023/10/10 13:08:20;;;;;;;9.15;5.18;;;24.60;99.90;;;;;;5016476;28;20030;-66
2023/10/10 13:10:54;;;;;;;12.65;5.03;;;24.60;99.90;;;;;;5017379;28;20029;-65
2023/10/10 13:13:26;;;;;;;14.10;5.80;;;24.70;99.90;;;;;;5017601;28;20072;-65
2023/10/10 13:16:07;;;;;;;15.13;6.13;;;24.40;99.90;;;;;;5016436;28;20026;-66
2023/10/10 13:18:35;;;;;;;18.52;5.38;;;24.70;99.90;;;;;;5016650;28;20018;-65
2023/10/10 13:21:01;;;;;;;12.38;5.30;;;24.30;99.90;;;;;;5017385;28;20029;-65
2023/10/10 13:23:27;;;;;;;14.38;5.40;;;24.10;99.90;;;;;;5016803;28;20041;-65
2023/10/10 13:25:52;;;;;;;10.50;4.65;;;24.10;99.90;;;;;;5017192;28;20030;-65
2023/10/10 13:28:19;;;;;;;10.80;5.25;;;24.00;99.90;;;;;;5017233;28;20026;-66
2023/10/10 13:30:47;;;;;;;11.18;5.13;;;25.00;99.90;;;;;;5016499;28;20026;-66
2023/10/10 13:33:14;;;;;;;18.77;5.38;;;25.40;99.90;;;;;;5017319;28;20029;-66
2023/10/10 13:35:40;;;;;;;11.68;5.30;;;25.60;99.90;;;;;;5016236;28;20109;-66
2023/10/10 13:38:06;;;;;;;10.55;5.57;;;26.60;99.90;;;;;;5017275;28;20049;-66
2023/10/10 13:40:37;;;;;;;14.32;5.15;;;27.00;99.90;;;;;;5020494;28;20026;-66
2023/10/10 13:43:08;;;;;;;10.65;5.03;;;26.10;99.90;;;;;;5021210;28;20029;-66
2023/10/10 13:45:38;;;;;;;13.07;5.32;;;25.50;99.90;;;;;;5020158;28;20026;-66
2023/10/10 13:48:14;;;;;;;11.98;5.57;;;25.80;99.90;;;;;;5019902;28;20033;-65
2023/10/10 13:50:42;;;;;;;9.93;5.72;;;26.20;99.90;;;;;;5021193;28;20066;-66
2023/10/10 13:53:14;;;;;;;16.75;5.55;;;26.10;99.90;;;;;;5020054;28;20026;-66
2023/10/10 13:55:44;;;;;;;11.15;5.68;;;26.20;99.90;;;;;;5020513;28;20026;-66
2023/10/10 13:58:13;;;;;;;14.60;6.10;;;26.60;99.90;;;;;;5020095;28;20108;-65
2023/10/10 14:00:41;;;;;;;9.95;5.15;;;26.40;99.90;;;;;;5019783;28;20107;-66
2023/10/10 14:03:06;;;;;;;13.57;5.65;;;26.00;99.90;;;;;;5019868;28;20076;-66
2023/10/10 14:05:37;;;;;;;8.63;5.15;;;25.60;99.90;;;;;;5019606;28;20029;-65
2023/10/10 14:08:07;;;;;;;10.57;6.32;;;25.50;99.90;;;;;;5020884;28;20026;-65
2023/10/10 14:10:42;;;;;;;11.07;5.47;;;25.30;99.90;;;;;;5019897;28;20113;-66
2023/10/10 14:13:20;;;;;;;12.43;6.15;;;25.70;99.90;;;;;;5019870;28;20029;-65
2023/10/10 14:15:56;;;;;;;16.02;6.22;;;25.80;99.90;;;;;;5020952;28;20029;-66
2023/10/10 14:18:34;;;;;;;15.02;6.00;;;25.70;99.90;;;;;;5020458;28;20018;-71
2023/10/10 14:21:08;;;;;;;14.00;6.00;;;25.30;99.90;;;;;;5020316;28;20018;-71
2023/10/10 14:23:40;;;;;;;11.38;4.82;;;24.80;99.90;;;;;;5061365;22;20099;-65
2023/10/10 14:26:13;;;;;;;11.65;5.20;;;24.60;99.90;;;;;;5040293;28;20025;-67
2023/10/10 14:28:50;;;;;;;13.85;5.95;;;24.60;99.90;;;;;;5040004;28;20071;-68
2023/10/10 14:31:17;;;;;;;11.50;5.70;;;24.60;99.90;;;;;;5039012;28;20032;-68
2023/10/10 14:33:43;;;;;;;10.00;5.43;;;24.40;99.90;;;;;;5039667;28;20029;-68
2023/10/10 14:36:13;;;;;;;11.73;5.07;;;24.40;99.90;;;;;;5039788;28;20148;-68
2023/10/10 14:38:44;;;;;;;10.88;5.65;;;25.00;99.90;;;;;;5039716;28;20101;-68
2023/10/10 14:41:16;;;;;;;10.18;5.30;;;26.80;99.90;;;;;;5040018;28;20029;-68
2023/10/10 14:43:49;;;;;;;13.57;5.90;;;27.30;99.90;;;;;;5039848;28;20047;-68
2023/10/10 14:46:21;;;;;;;16.23;6.03;;;27.10;99.90;;;;;;5038766;28;20121;-68
2023/10/10 14:49:41;;;;;;;12.20;5.88;;;26.90;99.90;;;;;;5039648;28;20037;-68
2023/10/10 14:51:40;;;;;;;11.02;5.30;;;26.90;99.90;;;;;;5031026;28;20033;-74
2023/10/10 14:54:13;;;;;;;13.57;6.53;;;26.60;99.90;;;;;;5039528;28;20063;-74
2023/10/10 14:56:45;;;;;;;20.92;6.47;;;25.50;99.90;;;;;;5039742;28;20022;-74
2023/10/10 14:59:22;;;;;;;14.60;6.25;;;24.60;99.90;;;;;;5038429;28;20022;-74
2023/10/10 15:01:48;;;;;;;13.43;5.28;;;24.10;99.90;;;;;;5039888;28;20075;-74
2023/10/10 15:04:19;;;;;;;12.60;5.60;;;24.20;99.90;;;;;;5039281;28;20025;-73
2023/10/10 15:06:46;;;;;;;16.08;5.63;;;24.00;99.90;;;;;;5039290;28;20028;-74
2023/10/10 15:09:13;;;;;;;13.27;5.50;;;24.20;99.90;;;;;;5038278;28;20029;-74
2023/10/10 15:11:41;;;;;;;14.73;5.65;;;23.80;99.90;;;;;;5038135;28;20022;-74
2023/10/10 15:14:09;;;;;;;17.33;5.47;;;23.80;99.90;;;;;;5038193;28;20049;-74
2023/10/10 15:16:36;;;;;;;14.07;5.70;;;23.40;99.90;;;;;;5038175;28;20075;-74
2023/10/10 15:19:08;;;;;;;16.67;5.60;;;23.30;99.90;;;;;;5039010;28;20026;-74
2023/10/10 15:21:35;;;;;;;16.40;5.70;;;23.10;99.90;;;;;;5039061;28;20079;-73
2023/10/10 15:24:01;;;;;;;11.52;5.18;;;23.10;99.90;;;;;;5038962;28;20021;-74
2023/10/10 15:26:27;;;;;;;11.43;4.97;;;22.90;99.90;;;;;;5039197;28;20057;-74
2023/10/10 15:28:54;;;;;;;10.82;4.95;;;22.70;99.90;;;;;;5039379;28;20030;-74
2023/10/10 15:31:25;;;;;;;19.45;5.35;;;22.80;99.90;;;;;;5039046;28;20014;-74
2023/10/10 15:33:54;;;;;;;10.65;4.95;;;22.70;99.90;;;;;;5038914;28;20055;-74
2023/10/10 15:36:20;;;;;;;8.43;4.30;;;22.70;99.90;;;;;;5037837;28;20026;-73
2023/10/10 15:38:46;;;;;;;14.98;5.38;;;22.60;99.90;;;;;;5037614;28;20018;-74
2023/10/10 15:41:19;;;;;;;10.20;5.03;;;22.60;99.90;;;;;;5038952;28;20021;-69
2023/10/10 15:43:49;;;;;;;12.63;4.60;;;22.50;99.90;;;;;;5037931;28;20025;-68